Time,TemperatureF,DewpointF,PressureIn,WindDirection,WindDirectionDegrees,WindSpeedMPH,WindSpeedGustMPH,Humidity,HourlyPrecipIn,Conditions,Clouds,dailyrainin,SoftwareType,DateUTC
2013-10-28 00:01:00,37.6,24.6,29.48,SW,225,0.0,0.0,59,0.00,,,0.00,meteohub,2013-10-28 05:01:00,
2013-10-28 00:06:00,37.4,24.4,29.48,SW,225,0.0,0.0,59,0.00,,,0.00,meteohub,2013-10-28 05:06:00,
2013-10-28 00:11:00,37.4,24.8,29.48,ESE,112,1.0,0.0,60,0.00,,,0.00,meteohub,2013-10-28 05:11:00,
2013-10-28 00:16:00,37.2,24.3,29.48,East,90,0.0,1.0,59,0.00,,,0.00,meteohub,2013-10-28 05:16:00,
2013-10-28 00:22:00,37.0,24.8,29.48,East,90,0.0,1.0,61,0.00,,,0.00,meteohub,2013-10-28 05:22:00,
2013-10-28 00:27:00,37.0,24.8,29.48,East,90,0.0,1.0,61,0.00,,,0.00,meteohub,2013-10-28 05:27:00,
2013-10-28 00:32:00,36.9,24.6,29.48,East,90,0.0,1.0,61,0.00,,,0.00,meteohub,2013-10-28 05:32:00,
2013-10-28 00:37:00,36.7,23.7,29.51,NE,45,2.0,0.0,59,0.00,,,0.00,meteohub,2013-10-28 05:37:00,
2013-10-28 00:42:00,36.9,25.2,29.51,NE,45,0.0,2.0,62,0.00,,,0.00,meteohub,2013-10-28 05:42:00,
2013-10-28 00:47:00,36.7,25.0,29.48,NE,45,0.0,2.0,62,0.00,,,0.00,meteohub,2013-10-28 05:47:00,
2013-10-28 00:52:00,36.7,25.3,29.48,NE,45,0.0,2.0,63,0.00,,,0.00,meteohub,2013-10-28 05:52:00,
2013-10-28 00:58:00,36.5,24.8,29.48,NE,45,0.0,1.0,62,0.00,,,0.00,meteohub,2013-10-28 05:58:00,
2013-10-28 01:03:00,36.3,25.0,29.48,NE,45,0.0,0.0,63,0.00,,,0.00,meteohub,2013-10-28 06:03:00,
2013-10-28 01:08:00,36.3,25.0,29.48,NE,45,0.0,0.0,63,0.00,,,0.00,meteohub,2013-10-28 06:08:00,
2013-10-28 01:13:00,36.1,24.8,29.48,NE,45,0.0,0.0,63,0.00,,,0.00,meteohub,2013-10-28 06:13:00,
2013-10-28 01:18:00,36.1,24.4,29.51,NE,45,0.0,0.0,62,0.00,,,0.00,meteohub,2013-10-28 06:18:00,
2013-10-28 01:23:00,36.1,24.8,29.51,NE,45,0.0,0.0,63,0.00,,,0.00,meteohub,2013-10-28 06:23:00,
2013-10-28 01:28:00,36.1,24.8,29.51,NE,45,0.0,0.0,63,0.00,,,0.00,meteohub,2013-10-28 06:28:00,
2013-10-28 01:33:00,36.1,24.8,29.51,NE,45,0.0,0.0,63,0.00,,,0.00,meteohub,2013-10-28 06:33:00,
2013-10-28 01:39:00,36.0,24.3,29.51,NE,45,1.0,1.0,62,0.00,,,0.00,meteohub,2013-10-28 06:39:00,
2013-10-28 01:44:00,36.0,25.0,29.51,NE,45,0.0,1.0,64,0.00,,,0.00,meteohub,2013-10-28 06:44:00,
2013-10-28 01:49:00,35.8,24.8,29.51,NE,45,0.0,1.0,64,0.00,,,0.00,meteohub,2013-10-28 06:49:00,
2013-10-28 01:54:00,35.8,25.2,29.51,NE,45,0.0,1.0,65,0.00,,,0.00,meteohub,2013-10-28 06:54:00,
2013-10-28 01:59:00,35.6,25.0,29.51,NE,45,0.0,1.0,65,0.00,,,0.00,meteohub,2013-10-28 06:59:00,
2013-10-28 02:04:00,35.6,25.0,29.51,NE,45,0.0,0.0,65,0.00,,,0.00,meteohub,2013-10-28 07:04:00,
2013-10-28 02:09:00,35.6,25.3,29.51,NE,45,0.0,0.0,66,0.00,,,0.00,meteohub,2013-10-28 07:09:00,
2013-10-28 02:14:00,35.6,25.3,29.51,NE,45,0.0,0.0,66,0.00,,,0.00,meteohub,2013-10-28 07:14:00,
2013-10-28 02:19:00,35.4,24.8,29.51,NE,45,0.0,0.0,65,0.00,,,0.00,meteohub,2013-10-28 07:19:00,
2013-10-28 02:24:00,35.4,24.4,29.51,NE,45,0.0,0.0,64,0.00,,,0.00,meteohub,2013-10-28 07:24:00,
2013-10-28 02:29:00,35.4,24.8,29.51,ENE,68,0.0,1.0,65,0.00,,,0.00,meteohub,2013-10-28 07:29:00,
2013-10-28 02:35:00,35.4,25.2,29.51,ENE,68,0.0,1.0,66,0.00,,,0.00,meteohub,2013-10-28 07:35:00,
2013-10-28 02:40:00,35.2,25.0,29.51,ENE,68,0.0,1.0,66,0.00,,,0.00,meteohub,2013-10-28 07:40:00,
2013-10-28 02:45:00,35.2,25.0,29.51,ENE,68,0.0,0.0,66,0.00,,,0.00,meteohub,2013-10-28 07:45:00,
2013-10-28 02:50:00,35.2,25.0,29.51,ENE,68,0.0,0.0,66,0.00,,,0.00,meteohub,2013-10-28 07:50:00,
2013-10-28 02:55:00,35.2,25.3,29.51,ENE,68,0.0,0.0,67,0.00,,,0.00,meteohub,2013-10-28 07:55:00,
2013-10-28 03:01:00,35.1,24.8,29.51,ENE,68,0.0,0.0,66,0.00,,,0.00,meteohub,2013-10-28 08:01:00,
2013-10-28 03:06:00,34.9,24.6,29.51,ENE,68,0.0,0.0,66,0.00,,,0.00,meteohub,2013-10-28 08:06:00,
2013-10-28 03:11:00,34.9,24.6,29.51,ENE,68,0.0,0.0,66,0.00,,,0.00,meteohub,2013-10-28 08:11:00,
2013-10-28 03:16:00,34.9,24.6,29.51,ENE,68,0.0,0.0,66,0.00,,,0.00,meteohub,2013-10-28 08:16:00,
2013-10-28 03:21:00,34.9,25.0,29.51,ENE,68,0.0,0.0,67,0.00,,,0.00,meteohub,2013-10-28 08:21:00,
2013-10-28 03:26:00,34.9,24.6,29.51,ENE,68,0.0,0.0,66,0.00,,,0.00,meteohub,2013-10-28 08:26:00,
2013-10-28 03:31:00,34.9,24.3,29.51,ENE,68,0.0,0.0,65,0.00,,,0.00,meteohub,2013-10-28 08:31:00,
2013-10-28 03:36:00,34.9,25.0,29.51,ENE,68,0.0,0.0,67,0.00,,,0.00,meteohub,2013-10-28 08:36:00,
2013-10-28 03:41:00,34.9,24.6,29.51,ENE,68,0.0,0.0,66,0.00,,,0.00,meteohub,2013-10-28 08:41:00,
2013-10-28 03:46:00,34.9,25.0,29.51,ENE,68,0.0,0.0,67,0.00,,,0.00,meteohub,2013-10-28 08:46:00,
2013-10-28 03:51:00,34.9,25.0,29.48,ENE,68,0.0,0.0,67,0.00,,,0.00,meteohub,2013-10-28 08:51:00,
2013-10-28 03:56:00,34.7,24.6,29.48,ENE,68,0.0,0.0,66,0.00,,,0.00,meteohub,2013-10-28 08:56:00,
2013-10-28 04:02:00,34.9,25.0,29.48,ENE,68,0.0,0.0,67,0.00,,,0.00,meteohub,2013-10-28 09:02:00,
2013-10-28 04:07:00,34.7,25.0,29.51,ENE,68,0.0,1.0,67,0.00,,,0.00,meteohub,2013-10-28 09:07:00,
2013-10-28 04:12:00,34.7,25.0,29.51,ENE,68,0.0,1.0,67,0.00,,,0.00,meteohub,2013-10-28 09:12:00,
2013-10-28 04:17:00,34.7,24.6,29.51,ENE,68,1.0,1.0,66,0.00,,,0.00,meteohub,2013-10-28 09:17:00,
2013-10-28 04:22:00,34.5,24.8,29.48,ENE,68,0.0,1.0,67,0.00,,,0.00,meteohub,2013-10-28 09:22:00,
2013-10-28 04:27:00,34.5,24.4,29.48,ENE,68,0.0,1.0,66,0.00,,,0.00,meteohub,2013-10-28 09:27:00,
2013-10-28 04:32:00,34.5,24.4,29.48,ENE,68,2.0,2.0,66,0.00,,,0.00,meteohub,2013-10-28 09:32:00,
2013-10-28 04:37:00,34.3,24.6,29.51,ENE,68,2.0,2.0,67,0.00,,,0.00,meteohub,2013-10-28 09:37:00,
2013-10-28 04:42:00,34.3,24.6,29.51,ENE,68,0.0,2.0,67,0.00,,,0.00,meteohub,2013-10-28 09:42:00,
2013-10-28 04:47:00,34.5,24.8,29.51,ENE,68,0.0,2.0,67,0.00,,,0.00,meteohub,2013-10-28 09:47:00,
2013-10-28 04:52:00,34.3,24.6,29.51,ENE,68,1.0,2.0,67,0.00,,,0.00,meteohub,2013-10-28 09:52:00,
2013-10-28 04:57:00,34.5,25.2,29.51,ENE,68,0.0,2.0,68,0.00,,,0.00,meteohub,2013-10-28 09:57:00,
2013-10-28 05:02:00,34.5,25.2,29.51,ENE,68,0.0,2.0,68,0.00,,,0.00,meteohub,2013-10-28 10:02:00,
2013-10-28 05:07:00,34.3,25.3,29.51,ENE,68,0.0,2.0,69,0.00,,,0.00,meteohub,2013-10-28 10:07:00,
2013-10-28 05:12:00,34.3,25.3,29.51,ENE,68,0.0,0.0,69,0.00,,,0.00,meteohub,2013-10-28 10:12:00,
2013-10-28 05:17:00,34.2,24.8,29.51,ENE,68,0.0,0.0,68,0.00,,,0.00,meteohub,2013-10-28 10:17:00,
2013-10-28 05:22:00,34.3,25.0,29.54,ENE,68,0.0,0.0,68,0.00,,,0.00,meteohub,2013-10-28 10:22:00,
2013-10-28 05:27:00,34.3,25.0,29.54,ENE,68,0.0,0.0,68,0.00,,,0.00,meteohub,2013-10-28 10:27:00,
2013-10-28 05:32:00,34.3,25.3,29.54,ENE,68,0.0,0.0,69,0.00,,,0.00,meteohub,2013-10-28 10:32:00,
2013-10-28 05:37:00,34.2,25.2,29.54,ENE,68,0.0,0.0,69,0.00,,,0.00,meteohub,2013-10-28 10:37:00,
2013-10-28 05:42:00,34.0,24.6,29.54,ENE,68,0.0,0.0,68,0.00,,,0.00,meteohub,2013-10-28 10:42:00,
2013-10-28 05:47:00,34.0,25.0,29.54,ENE,68,0.0,0.0,69,0.00,,,0.00,meteohub,2013-10-28 10:47:00,
2013-10-28 05:52:00,34.0,25.0,29.54,ENE,68,0.0,0.0,69,0.00,,,0.00,meteohub,2013-10-28 10:52:00,
2013-10-28 05:57:00,34.0,25.0,29.54,ENE,68,0.0,0.0,69,0.00,,,0.00,meteohub,2013-10-28 10:57:00,
2013-10-28 06:02:00,33.8,24.8,29.54,ENE,68,0.0,0.0,69,0.00,,,0.00,meteohub,2013-10-28 11:02:00,
2013-10-28 06:07:00,33.8,24.8,29.54,ENE,68,0.0,0.0,69,0.00,,,0.00,meteohub,2013-10-28 11:07:00,
2013-10-28 06:12:00,33.6,24.6,29.54,ENE,68,0.0,0.0,69,0.00,,,0.00,meteohub,2013-10-28 11:12:00,
2013-10-28 06:17:00,33.6,25.0,29.54,ENE,68,0.0,0.0,70,0.00,,,0.00,meteohub,2013-10-28 11:17:00,
2013-10-28 06:22:00,33.6,25.0,29.57,ENE,68,0.0,0.0,70,0.00,,,0.00,meteohub,2013-10-28 11:22:00,
2013-10-28 06:27:00,33.6,25.0,29.57,ENE,68,0.0,0.0,70,0.00,,,0.00,meteohub,2013-10-28 11:27:00,
2013-10-28 06:32:00,33.4,24.8,29.57,ENE,68,0.0,0.0,70,0.00,,,0.00,meteohub,2013-10-28 11:32:00,
2013-10-28 06:37:00,33.4,24.8,29.54,ENE,68,0.0,0.0,70,0.00,,,0.00,meteohub,2013-10-28 11:37:00,
2013-10-28 06:42:00,33.3,24.6,29.54,ENE,68,0.0,0.0,70,0.00,,,0.00,meteohub,2013-10-28 11:42:00,
2013-10-28 06:47:00,33.4,24.8,29.54,ENE,68,0.0,0.0,70,0.00,,,0.00,meteohub,2013-10-28 11:47:00,
2013-10-28 06:52:00,33.4,24.8,29.57,ENE,68,0.0,0.0,70,0.00,,,0.00,meteohub,2013-10-28 11:52:00,
2013-10-28 06:57:00,33.4,24.8,29.57,ENE,68,0.0,0.0,70,0.00,,,0.00,meteohub,2013-10-28 11:57:00,
2013-10-28 07:02:00,33.3,24.6,29.57,ENE,68,0.0,0.0,70,0.00,,,0.00,meteohub,2013-10-28 12:02:00,
2013-10-28 07:07:00,33.3,24.6,29.57,ENE,68,0.0,0.0,70,0.00,,,0.00,meteohub,2013-10-28 12:07:00,
2013-10-28 07:12:00,33.3,24.6,29.57,ENE,68,0.0,0.0,70,0.00,,,0.00,meteohub,2013-10-28 12:12:00,
2013-10-28 07:17:00,33.3,24.6,29.57,ENE,68,0.0,0.0,70,0.00,,,0.00,meteohub,2013-10-28 12:17:00,
2013-10-28 07:22:00,33.3,24.6,29.57,ENE,68,0.0,0.0,70,0.00,,,0.00,meteohub,2013-10-28 12:22:00,
2013-10-28 07:27:00,33.3,25.0,29.57,ENE,68,0.0,0.0,71,0.00,,,0.00,meteohub,2013-10-28 12:27:00,
2013-10-28 07:32:00,33.1,24.4,29.57,ENE,68,0.0,0.0,70,0.00,,,0.00,meteohub,2013-10-28 12:32:00,
2013-10-28 07:37:00,33.3,25.0,29.57,ENE,68,0.0,0.0,71,0.00,,,0.00,meteohub,2013-10-28 12:37:00,
2013-10-28 07:42:00,33.4,25.2,29.57,ENE,68,0.0,0.0,71,0.00,,,0.00,meteohub,2013-10-28 12:42:00,
2013-10-28 07:47:00,33.4,25.2,29.57,ENE,68,0.0,0.0,71,0.00,,,0.00,meteohub,2013-10-28 12:47:00,
2013-10-28 07:52:00,33.6,25.3,29.54,ENE,68,0.0,0.0,71,0.00,,,0.00,meteohub,2013-10-28 12:52:00,
2013-10-28 07:57:00,33.8,25.3,29.54,ENE,68,0.0,0.0,71,0.00,,,0.00,meteohub,2013-10-28 12:57:00,
2013-10-28 08:02:00,33.8,25.3,29.54,ENE,68,0.0,0.0,71,0.00,,,0.00,meteohub,2013-10-28 13:02:00,
2013-10-28 08:07:00,34.0,25.5,29.57,ENE,68,0.0,0.0,71,0.00,,,0.00,meteohub,2013-10-28 13:07:00,
2013-10-28 08:12:00,34.3,25.9,29.57,ENE,68,0.0,0.0,71,0.00,,,0.00,meteohub,2013-10-28 13:12:00,
2013-10-28 08:17:00,34.5,26.1,29.57,ENE,68,0.0,0.0,71,0.00,,,0.00,meteohub,2013-10-28 13:17:00,
2013-10-28 08:22:00,35.1,26.6,29.57,ENE,68,0.0,0.0,71,0.00,,,0.00,meteohub,2013-10-28 13:22:00,
2013-10-28 08:27:00,35.8,27.3,29.57,ENE,68,2.0,2.0,71,0.00,,,0.00,meteohub,2013-10-28 13:27:00,
2013-10-28 08:32:00,36.5,28.0,29.57,ENE,68,2.0,2.0,71,0.00,,,0.00,meteohub,2013-10-28 13:32:00,
2013-10-28 08:37:00,37.2,28.8,29.57,ENE,68,0.0,2.0,71,0.00,,,0.00,meteohub,2013-10-28 13:37:00,
2013-10-28 08:42:00,37.4,28.6,29.57,ENE,68,2.0,2.0,70,0.00,,,0.00,meteohub,2013-10-28 13:42:00,
2013-10-28 08:47:00,38.8,29.8,29.60,ENE,68,1.0,2.0,70,0.00,,,0.00,meteohub,2013-10-28 13:47:00,
2013-10-28 08:53:00,39.7,30.4,29.60,East,90,1.0,2.0,69,0.00,,,0.00,meteohub,2013-10-28 13:53:00,
2013-10-28 08:58:00,40.6,30.9,29.60,ENE,68,1.0,2.0,68,0.00,,,0.00,meteohub,2013-10-28 13:58:00,
2013-10-28 09:03:00,41.7,31.6,29.60,ENE,68,1.0,2.0,67,0.00,,,0.00,meteohub,2013-10-28 14:03:00,
2013-10-28 09:08:00,42.4,32.0,29.60,South,180,1.0,3.0,66,0.00,,,0.00,meteohub,2013-10-28 14:08:00,
2013-10-28 09:13:00,43.3,32.0,29.60,East,90,2.0,3.0,64,0.00,,,0.00,meteohub,2013-10-28 14:13:00,
2013-10-28 09:18:00,44.1,32.4,29.60,East,90,3.0,3.0,63,0.00,,,0.00,meteohub,2013-10-28 14:18:00,
2013-10-28 09:23:00,45.0,32.4,29.60,East,90,2.0,4.0,61,0.00,,,0.00,meteohub,2013-10-28 14:23:00,
2013-10-28 09:28:00,45.5,32.0,29.60,South,180,1.0,4.0,59,0.00,,,0.00,meteohub,2013-10-28 14:28:00,
2013-10-28 09:33:00,46.4,32.5,29.60,SSW,202,1.0,4.0,58,0.00,,,0.00,meteohub,2013-10-28 14:33:00,
2013-10-28 09:38:00,46.8,32.4,29.60,ENE,68,1.0,4.0,57,0.00,,,0.00,meteohub,2013-10-28 14:38:00,
2013-10-28 09:43:00,47.3,32.4,29.60,SSE,158,2.0,4.0,56,0.00,,,0.00,meteohub,2013-10-28 14:43:00,
2013-10-28 09:48:00,47.7,32.7,29.63,South,180,0.0,3.0,56,0.00,,,0.00,meteohub,2013-10-28 14:48:00,
2013-10-28 09:54:00,48.4,32.5,29.63,SSW,202,2.0,4.0,54,0.00,,,0.00,meteohub,2013-10-28 14:54:00,
2013-10-28 09:59:00,48.9,33.1,29.63,WNW,292,1.0,6.0,54,0.00,,,0.00,meteohub,2013-10-28 14:59:00,
2013-10-28 10:04:00,49.5,33.1,29.63,SSW,202,1.0,6.0,53,0.00,,,0.00,meteohub,2013-10-28 15:04:00,
2013-10-28 10:09:00,50.0,33.6,29.63,ESE,112,1.0,6.0,53,0.00,,,0.00,meteohub,2013-10-28 15:09:00,
2013-10-28 10:14:00,50.9,34.0,29.63,South,180,1.0,5.0,52,0.00,,,0.00,meteohub,2013-10-28 15:14:00,
2013-10-28 10:19:00,51.4,34.0,29.63,SE,135,2.0,5.0,51,0.00,,,0.00,meteohub,2013-10-28 15:19:00,
2013-10-28 10:24:00,52.3,33.3,29.63,SSE,158,3.0,5.0,48,0.00,,,0.00,meteohub,2013-10-28 15:24:00,
2013-10-28 10:29:00,52.9,33.8,29.63,SE,135,2.0,4.0,48,0.00,,,0.00,meteohub,2013-10-28 15:29:00,
2013-10-28 10:34:00,53.6,34.0,29.63,SSW,202,3.0,4.0,47,0.00,,,0.00,meteohub,2013-10-28 15:34:00,
2013-10-28 10:39:00,54.0,33.6,29.63,SSE,158,3.0,4.0,46,0.00,,,0.00,meteohub,2013-10-28 15:39:00,
2013-10-28 10:44:00,54.5,33.6,29.63,South,180,2.0,6.0,45,0.00,,,0.00,meteohub,2013-10-28 15:44:00,
2013-10-28 10:49:00,54.9,33.4,29.63,SW,225,4.0,6.0,44,0.00,,,0.00,meteohub,2013-10-28 15:49:00,
2013-10-28 10:55:00,55.4,33.3,29.63,South,180,4.0,6.0,43,0.00,,,0.00,meteohub,2013-10-28 15:55:00,
2013-10-28 11:00:00,55.9,33.3,29.63,SW,225,1.0,6.0,42,0.00,,,0.00,meteohub,2013-10-28 16:00:00,
2013-10-28 11:05:00,56.5,32.5,29.63,South,180,2.0,6.0,40,0.00,,,0.00,meteohub,2013-10-28 16:05:00,
2013-10-28 11:10:00,56.7,32.7,29.63,SSE,158,2.0,6.0,40,0.00,,,0.00,meteohub,2013-10-28 16:10:00,
2013-10-28 11:15:00,56.8,32.2,29.63,SSE,158,1.0,6.0,39,0.00,,,0.00,meteohub,2013-10-28 16:15:00,
2013-10-28 11:20:00,57.2,31.8,29.63,ENE,68,3.0,5.0,38,0.00,,,0.00,meteohub,2013-10-28 16:20:00,
2013-10-28 11:25:00,57.6,31.5,29.63,SSE,158,2.0,5.0,37,0.00,,,0.00,meteohub,2013-10-28 16:25:00,
2013-10-28 11:30:00,57.9,32.5,29.63,WSW,248,4.0,5.0,38,0.00,,,0.00,meteohub,2013-10-28 16:30:00,
2013-10-28 11:35:00,58.1,32.7,29.63,WSW,248,4.0,6.0,38,0.00,,,0.00,meteohub,2013-10-28 16:35:00,
2013-10-28 11:41:00,58.6,33.1,29.63,East,90,4.0,6.0,38,0.00,,,0.00,meteohub,2013-10-28 16:41:00,
2013-10-28 11:46:00,58.8,32.0,29.63,NE,45,3.0,6.0,36,0.00,,,0.00,meteohub,2013-10-28 16:46:00,
2013-10-28 11:51:00,59.0,31.5,29.66,ESE,112,4.0,6.0,35,0.00,,,0.00,meteohub,2013-10-28 16:51:00,
2013-10-28 11:56:00,59.5,32.5,29.66,WSW,248,3.0,4.0,36,0.00,,,0.00,meteohub,2013-10-28 16:56:00,
2013-10-28 12:01:00,60.1,33.1,29.66,NNW,338,0.0,4.0,36,0.00,,,0.00,meteohub,2013-10-28 17:01:00,
2013-10-28 12:06:00,60.1,32.4,29.63,NNW,338,2.0,4.0,35,0.00,,,0.00,meteohub,2013-10-28 17:06:00,
2013-10-28 12:11:00,60.4,32.7,29.63,SSE,158,3.0,4.0,35,0.00,,,0.00,meteohub,2013-10-28 17:11:00,
2013-10-28 12:17:00,60.8,32.4,29.63,East,90,2.0,4.0,34,0.00,,,0.00,meteohub,2013-10-28 17:17:00,
2013-10-28 12:22:00,61.0,32.5,29.63,NW,315,2.0,6.0,34,0.00,,,0.00,meteohub,2013-10-28 17:22:00,
2013-10-28 12:27:00,61.5,32.9,29.63,East,90,4.0,6.0,34,0.00,,,0.00,meteohub,2013-10-28 17:27:00,
2013-10-28 12:32:00,61.2,32.5,29.63,East,90,3.0,4.0,34,0.00,,,0.00,meteohub,2013-10-28 17:32:00,
2013-10-28 12:37:00,61.2,32.5,29.63,ESE,112,0.0,6.0,34,0.00,,,0.00,meteohub,2013-10-28 17:37:00,
2013-10-28 12:42:00,61.9,33.3,29.63,NE,45,2.0,6.0,34,0.00,,,0.00,meteohub,2013-10-28 17:42:00,
2013-10-28 12:47:00,62.2,33.6,29.63,NW,315,2.0,5.0,34,0.00,,,0.00,meteohub,2013-10-28 17:47:00,
2013-10-28 12:52:00,62.8,34.0,29.60,ENE,68,2.0,4.0,34,0.00,,,0.00,meteohub,2013-10-28 17:52:00,
2013-10-28 12:57:00,62.8,33.3,29.60,ENE,68,3.0,4.0,33,0.00,,,0.00,meteohub,2013-10-28 17:57:00,
2013-10-28 13:02:00,63.0,33.4,29.60,NE,45,3.0,5.0,33,0.00,,,0.00,meteohub,2013-10-28 18:02:00,
2013-10-28 13:07:00,63.5,34.0,29.60,South,180,2.0,5.0,33,0.00,,,0.00,meteohub,2013-10-28 18:07:00,
2013-10-28 13:12:00,64.0,34.3,29.60,SSW,202,2.0,5.0,33,0.00,,,0.00,meteohub,2013-10-28 18:12:00,
2013-10-28 13:17:00,64.2,34.5,29.60,NE,45,2.0,5.0,33,0.00,,,0.00,meteohub,2013-10-28 18:17:00,
2013-10-28 13:22:00,64.4,34.0,29.60,WSW,248,2.0,5.0,32,0.00,,,0.00,meteohub,2013-10-28 18:22:00,
2013-10-28 13:27:00,64.9,33.6,29.60,SW,225,1.0,5.0,31,0.00,,,0.00,meteohub,2013-10-28 18:27:00,
2013-10-28 13:33:00,64.9,32.7,29.60,SW,225,4.0,4.0,30,0.00,,,0.00,meteohub,2013-10-28 18:33:00,
2013-10-28 13:38:00,64.9,32.0,29.60,NE,45,3.0,5.0,29,0.00,,,0.00,meteohub,2013-10-28 18:38:00,
2013-10-28 13:43:00,65.7,33.4,29.60,NW,315,2.0,5.0,30,0.00,,,0.00,meteohub,2013-10-28 18:43:00,
2013-10-28 13:48:00,65.8,32.7,29.60,SW,225,1.0,5.0,29,0.00,,,0.00,meteohub,2013-10-28 18:48:00,
2013-10-28 13:53:00,66.0,32.0,29.60,North,0,3.0,4.0,28,0.00,,,0.00,meteohub,2013-10-28 18:53:00,
2013-10-28 13:58:00,66.2,31.3,29.60,NNE,22,2.0,5.0,27,0.00,,,0.00,meteohub,2013-10-28 18:58:00,
2013-10-28 14:03:00,66.0,31.1,29.60,NNE,22,2.0,5.0,27,0.00,,,0.00,meteohub,2013-10-28 19:03:00,
2013-10-28 14:08:00,65.5,29.7,29.60,East,90,4.0,5.0,26,0.00,,,0.00,meteohub,2013-10-28 19:08:00,
2013-10-28 14:14:00,66.0,31.1,29.60,WNW,292,0.0,6.0,27,0.00,,,0.00,meteohub,2013-10-28 19:14:00,
2013-10-28 14:19:00,66.6,31.6,29.57,SW,225,4.0,6.0,27,0.00,,,0.00,meteohub,2013-10-28 19:19:00,
2013-10-28 14:24:00,67.1,32.0,29.57,SE,135,3.0,6.0,27,0.00,,,0.00,meteohub,2013-10-28 19:24:00,
2013-10-28 14:29:00,67.1,32.0,29.57,WSW,248,2.0,5.0,27,0.00,,,0.00,meteohub,2013-10-28 19:29:00,
2013-10-28 14:34:00,67.1,32.0,29.60,SW,225,1.0,5.0,27,0.00,,,0.00,meteohub,2013-10-28 19:34:00,
2013-10-28 14:39:00,67.6,31.6,29.60,NW,315,2.0,5.0,26,0.00,,,0.00,meteohub,2013-10-28 19:39:00,
2013-10-28 14:44:00,67.6,31.6,29.60,WSW,248,1.0,4.0,26,0.00,,,0.00,meteohub,2013-10-28 19:44:00,
2013-10-28 14:49:00,67.3,31.3,29.57,ENE,68,1.0,3.0,26,0.00,,,0.00,meteohub,2013-10-28 19:49:00,
2013-10-28 14:54:00,67.3,31.3,29.57,West,270,1.0,4.0,26,0.00,,,0.00,meteohub,2013-10-28 19:54:00,
2013-10-28 14:59:00,67.6,31.6,29.57,East,90,2.0,4.0,26,0.00,,,0.00,meteohub,2013-10-28 19:59:00,
2013-10-28 15:04:00,67.3,30.4,29.57,ENE,68,3.0,4.0,25,0.00,,,0.00,meteohub,2013-10-28 20:04:00,
2013-10-28 15:10:00,67.8,30.7,29.57,SSE,158,1.0,4.0,25,0.00,,,0.00,meteohub,2013-10-28 20:10:00,
2013-10-28 15:15:00,67.3,30.4,29.57,East,90,1.0,4.0,25,0.00,,,0.00,meteohub,2013-10-28 20:15:00,
2013-10-28 15:20:00,67.5,30.4,29.57,South,180,3.0,4.0,25,0.00,,,0.00,meteohub,2013-10-28 20:20:00,
2013-10-28 15:25:00,67.5,30.4,29.57,SSE,158,5.0,5.0,25,0.00,,,0.00,meteohub,2013-10-28 20:25:00,
2013-10-28 15:30:00,66.9,30.0,29.57,WSW,248,1.0,5.0,25,0.00,,,0.00,meteohub,2013-10-28 20:30:00,
2013-10-28 15:35:00,66.6,29.7,29.57,East,90,2.0,5.0,25,0.00,,,0.00,meteohub,2013-10-28 20:35:00,
2013-10-28 15:40:00,65.8,29.1,29.57,ENE,68,4.0,4.0,25,0.00,,,0.00,meteohub,2013-10-28 20:40:00,
2013-10-28 15:45:00,65.8,29.1,29.57,North,0,0.0,4.0,25,0.00,,,0.00,meteohub,2013-10-28 20:45:00,
2013-10-28 15:50:00,66.0,29.3,29.57,SSW,202,2.0,4.0,25,0.00,,,0.00,meteohub,2013-10-28 20:50:00,
2013-10-28 15:55:00,65.8,29.1,29.57,SSW,202,2.0,4.0,25,0.00,,,0.00,meteohub,2013-10-28 20:55:00,
2013-10-28 16:00:00,65.7,28.9,29.57,East,90,1.0,4.0,25,0.00,,,0.00,meteohub,2013-10-28 21:00:00,
2013-10-28 16:06:00,65.1,28.4,29.60,East,90,0.0,3.0,25,0.00,,,0.00,meteohub,2013-10-28 21:06:00,
2013-10-28 16:11:00,64.8,28.2,29.60,SSW,202,1.0,3.0,25,0.00,,,0.00,meteohub,2013-10-28 21:11:00,
2013-10-28 16:16:00,64.4,27.9,29.60,ENE,68,0.0,4.0,25,0.00,,,0.00,meteohub,2013-10-28 21:16:00,
2013-10-28 16:21:00,64.2,28.6,29.60,East,90,1.0,4.0,26,0.00,,,0.00,meteohub,2013-10-28 21:21:00,
2013-10-28 16:26:00,64.4,27.9,29.60,ENE,68,1.0,4.0,25,0.00,,,0.00,meteohub,2013-10-28 21:26:00,
2013-10-28 16:31:00,64.0,28.6,29.60,SE,135,2.0,3.0,26,0.00,,,0.00,meteohub,2013-10-28 21:31:00,
2013-10-28 16:36:00,64.0,28.6,29.60,ESE,112,1.0,3.0,26,0.00,,,0.00,meteohub,2013-10-28 21:36:00,
2013-10-28 16:41:00,63.7,28.2,29.60,South,180,0.0,3.0,26,0.00,,,0.00,meteohub,2013-10-28 21:41:00,
2013-10-28 16:46:00,63.3,27.9,29.60,East,90,2.0,3.0,26,0.00,,,0.00,meteohub,2013-10-28 21:46:00,
2013-10-28 16:51:00,63.0,27.7,29.60,East,90,1.0,3.0,26,0.00,,,0.00,meteohub,2013-10-28 21:51:00,
2013-10-28 16:56:00,62.4,28.0,29.60,East,90,0.0,3.0,27,0.00,,,0.00,meteohub,2013-10-28 21:56:00,
2013-10-28 17:02:00,61.9,27.5,29.60,East,90,0.0,3.0,27,0.00,,,0.00,meteohub,2013-10-28 22:02:00,
2013-10-28 17:07:00,61.3,27.1,29.60,East,90,0.0,1.0,27,0.00,,,0.00,meteohub,2013-10-28 22:07:00,
2013-10-28 17:12:00,61.0,26.8,29.60,East,90,0.0,1.0,27,0.00,,,0.00,meteohub,2013-10-28 22:12:00,
2013-10-28 17:17:00,60.6,27.3,29.60,East,90,0.0,0.0,28,0.00,,,0.00,meteohub,2013-10-28 22:17:00,
2013-10-28 17:22:00,60.4,27.3,29.60,East,90,0.0,0.0,28,0.00,,,0.00,meteohub,2013-10-28 22:22:00,
2013-10-28 17:27:00,60.1,27.9,29.60,East,90,2.0,0.0,29,0.00,,,0.00,meteohub,2013-10-28 22:27:00,
2013-10-28 17:32:00,59.9,28.4,29.60,East,90,0.0,2.0,30,0.00,,,0.00,meteohub,2013-10-28 22:32:00,
2013-10-28 17:37:00,59.7,28.2,29.60,East,90,0.0,2.0,30,0.00,,,0.00,meteohub,2013-10-28 22:37:00,
2013-10-28 17:42:00,59.4,28.8,29.60,East,90,0.0,2.0,31,0.00,,,0.00,meteohub,2013-10-28 22:42:00,
2013-10-28 17:47:00,59.2,29.3,29.60,East,90,0.0,1.0,32,0.00,,,0.00,meteohub,2013-10-28 22:47:00,
2013-10-28 17:52:00,59.0,29.3,29.60,East,90,0.0,0.0,32,0.00,,,0.00,meteohub,2013-10-28 22:52:00,
2013-10-28 17:57:00,58.6,29.7,29.60,East,90,0.0,0.0,33,0.00,,,0.00,meteohub,2013-10-28 22:57:00,
2013-10-28 18:02:00,58.3,30.0,29.60,ESE,112,0.0,1.0,34,0.00,,,0.00,meteohub,2013-10-28 23:02:00,
2013-10-28 18:07:00,57.9,29.8,29.60,East,90,1.0,1.0,34,0.00,,,0.00,meteohub,2013-10-28 23:07:00,
2013-10-28 18:12:00,57.6,30.2,29.60,East,90,0.0,1.0,35,0.00,,,0.00,meteohub,2013-10-28 23:12:00,
2013-10-28 18:17:00,57.2,29.8,29.60,East,90,0.0,1.0,35,0.00,,,0.00,meteohub,2013-10-28 23:17:00,
2013-10-28 18:22:00,56.8,29.5,29.60,East,90,0.0,1.0,35,0.00,,,0.00,meteohub,2013-10-28 23:22:00,
2013-10-28 18:27:00,56.3,29.7,29.60,East,90,0.0,0.0,36,0.00,,,0.00,meteohub,2013-10-28 23:27:00,
2013-10-28 18:32:00,55.8,29.3,29.60,East,90,0.0,0.0,36,0.00,,,0.00,meteohub,2013-10-28 23:32:00,
2013-10-28 18:37:00,55.2,29.5,29.60,East,90,1.0,0.0,37,0.00,,,0.00,meteohub,2013-10-28 23:37:00,
2013-10-28 18:42:00,54.7,28.9,29.60,East,90,0.0,1.0,37,0.00,,,0.00,meteohub,2013-10-28 23:42:00,
2013-10-28 18:47:00,54.5,28.8,29.60,East,90,0.0,1.0,37,0.00,,,0.00,meteohub,2013-10-28 23:47:00,
2013-10-28 18:52:00,54.1,29.1,29.63,East,90,0.0,1.0,38,0.00,,,0.00,meteohub,2013-10-28 23:52:00,
2013-10-28 18:57:00,53.8,28.8,29.63,East,90,0.0,0.0,38,0.00,,,0.00,meteohub,2013-10-28 23:57:00,
2013-10-28 19:02:00,53.2,28.9,29.63,East,90,0.0,0.0,39,0.00,,,0.00,meteohub,2013-10-29 00:02:00,
2013-10-28 19:07:00,52.7,29.1,29.63,East,90,0.0,0.0,40,0.00,,,0.00,meteohub,2013-10-29 00:07:00,
2013-10-28 19:12:00,52.3,28.8,29.63,NE,45,2.0,0.0,40,0.00,,,0.00,meteohub,2013-10-29 00:12:00,
2013-10-28 19:17:00,52.2,28.6,29.63,NE,45,0.0,2.0,40,0.00,,,0.00,meteohub,2013-10-29 00:17:00,
2013-10-28 19:22:00,52.0,29.1,29.63,NE,45,1.0,2.0,41,0.00,,,0.00,meteohub,2013-10-29 00:22:00,
2013-10-28 19:27:00,51.6,28.8,29.63,NE,45,1.0,2.0,41,0.00,,,0.00,meteohub,2013-10-29 00:27:00,
2013-10-28 19:32:00,51.6,29.3,29.63,NE,45,2.0,2.0,42,0.00,,,0.00,meteohub,2013-10-29 00:32:00,
2013-10-28 19:37:00,51.3,29.5,29.63,NE,45,0.0,2.0,43,0.00,,,0.00,meteohub,2013-10-29 00:37:00,
2013-10-28 19:42:00,51.1,28.8,29.63,NE,45,0.0,2.0,42,0.00,,,0.00,meteohub,2013-10-29 00:42:00,
2013-10-28 19:47:00,50.5,28.9,29.63,NE,45,0.0,2.0,43,0.00,,,0.00,meteohub,2013-10-29 00:47:00,
2013-10-28 19:52:00,50.2,29.1,29.63,NE,45,0.0,1.0,44,0.00,,,0.00,meteohub,2013-10-29 00:52:00,
2013-10-28 19:57:00,49.8,29.3,29.63,NE,45,0.0,0.0,45,0.00,,,0.00,meteohub,2013-10-29 00:57:00,
2013-10-28 20:02:00,49.6,29.1,29.60,NE,45,0.0,0.0,45,0.00,,,0.00,meteohub,2013-10-29 01:02:00,
2013-10-28 20:08:00,49.5,29.7,29.60,NE,45,0.0,0.0,46,0.00,,,0.00,meteohub,2013-10-29 01:08:00,
2013-10-28 20:13:00,49.3,29.5,29.60,NE,45,0.0,0.0,46,0.00,,,0.00,meteohub,2013-10-29 01:13:00,
2013-10-28 20:18:00,49.1,29.8,29.60,NE,45,0.0,1.0,47,0.00,,,0.00,meteohub,2013-10-29 01:18:00,
2013-10-28 20:23:00,48.7,29.5,29.63,NE,45,0.0,1.0,47,0.00,,,0.00,meteohub,2013-10-29 01:23:00,
2013-10-28 20:28:00,48.6,29.8,29.63,NE,45,0.0,1.0,48,0.00,,,0.00,meteohub,2013-10-29 01:28:00,
2013-10-28 20:33:00,48.4,29.1,29.63,NE,45,2.0,0.0,47,0.00,,,0.00,meteohub,2013-10-29 01:33:00,
2013-10-28 20:38:00,48.4,29.7,29.63,NE,45,0.0,2.0,48,0.00,,,0.00,meteohub,2013-10-29 01:38:00,
2013-10-28 20:43:00,48.2,29.5,29.63,NE,45,0.0,2.0,48,0.00,,,0.00,meteohub,2013-10-29 01:43:00,
2013-10-28 20:48:00,48.0,29.3,29.63,NE,45,1.0,2.0,48,0.00,,,0.00,meteohub,2013-10-29 01:48:00,
2013-10-28 20:53:00,48.0,29.8,29.63,NE,45,0.0,1.0,49,0.00,,,0.00,meteohub,2013-10-29 01:53:00,
2013-10-28 20:59:00,47.7,29.5,29.63,NE,45,0.0,1.0,49,0.00,,,0.00,meteohub,2013-10-29 01:59:00,
2013-10-28 21:04:00,47.3,29.1,29.63,NE,45,0.0,1.0,49,0.00,,,0.00,meteohub,2013-10-29 02:04:00,
2013-10-28 21:09:00,47.3,29.7,29.63,NE,45,0.0,1.0,50,0.00,,,0.00,meteohub,2013-10-29 02:09:00,
2013-10-28 21:14:00,47.1,29.5,29.63,NE,45,0.0,2.0,50,0.00,,,0.00,meteohub,2013-10-29 02:14:00,
2013-10-28 21:19:00,47.1,29.5,29.63,NE,45,0.0,2.0,50,0.00,,,0.00,meteohub,2013-10-29 02:19:00,
2013-10-28 21:24:00,47.1,29.5,29.63,NE,45,0.0,2.0,50,0.00,,,0.00,meteohub,2013-10-29 02:24:00,
2013-10-28 21:29:00,46.9,29.8,29.63,NE,45,0.0,0.0,51,0.00,,,0.00,meteohub,2013-10-29 02:29:00,
2013-10-28 21:35:00,46.8,30.0,29.63,NE,45,0.0,0.0,52,0.00,,,0.00,meteohub,2013-10-29 02:35:00,
2013-10-28 21:40:00,46.6,30.0,29.63,NE,45,0.0,0.0,52,0.00,,,0.00,meteohub,2013-10-29 02:40:00,
2013-10-28 21:45:00,46.2,30.0,29.63,NE,45,0.0,0.0,53,0.00,,,0.00,meteohub,2013-10-29 02:45:00,
2013-10-28 21:50:00,46.0,29.8,29.63,NE,45,0.0,0.0,53,0.00,,,0.00,meteohub,2013-10-29 02:50:00,
2013-10-28 21:55:00,45.9,29.7,29.63,NE,45,0.0,0.0,53,0.00,,,0.00,meteohub,2013-10-29 02:55:00,
2013-10-28 22:00:00,45.7,30.0,29.63,NE,45,0.0,0.0,54,0.00,,,0.00,meteohub,2013-10-29 03:00:00,
2013-10-28 22:05:00,45.5,29.8,29.66,NE,45,0.0,0.0,54,0.00,,,0.00,meteohub,2013-10-29 03:05:00,
2013-10-28 22:10:00,45.5,29.8,29.66,NE,45,0.0,0.0,54,0.00,,,0.00,meteohub,2013-10-29 03:10:00,
2013-10-28 22:15:00,45.3,29.7,29.66,NE,45,0.0,0.0,54,0.00,,,0.00,meteohub,2013-10-29 03:15:00,
2013-10-28 22:20:00,45.1,30.0,29.66,NE,45,0.0,0.0,55,0.00,,,0.00,meteohub,2013-10-29 03:20:00,
2013-10-28 22:26:00,45.1,30.0,29.66,NE,45,1.0,1.0,55,0.00,,,0.00,meteohub,2013-10-29 03:26:00,
2013-10-28 22:31:00,45.1,30.0,29.66,NE,45,0.0,1.0,55,0.00,,,0.00,meteohub,2013-10-29 03:31:00,
2013-10-28 22:36:00,45.0,29.3,29.66,NE,45,0.0,1.0,54,0.00,,,0.00,meteohub,2013-10-29 03:36:00,
2013-10-28 22:41:00,45.0,29.8,29.66,ENE,68,0.0,1.0,55,0.00,,,0.00,meteohub,2013-10-29 03:41:00,
2013-10-28 22:46:00,44.8,29.1,29.66,ENE,68,0.0,0.0,54,0.00,,,0.00,meteohub,2013-10-29 03:46:00,
2013-10-28 22:51:00,44.8,29.7,29.66,ENE,68,0.0,0.0,55,0.00,,,0.00,meteohub,2013-10-29 03:51:00,
2013-10-28 22:56:00,44.8,29.1,29.66,ENE,68,0.0,0.0,54,0.00,,,0.00,meteohub,2013-10-29 03:56:00,
2013-10-28 23:01:00,45.0,29.3,29.66,ENE,68,0.0,0.0,54,0.00,,,0.00,meteohub,2013-10-29 04:01:00,
2013-10-28 23:02:00,45.0,29.3,29.66,ENE,68,0.0,0.0,54,0.00,,,0.00,meteohub,2013-10-29 04:02:00,
2013-10-28 23:04:00,45.1,30.0,29.66,ENE,68,0.0,0.0,55,0.00,,,0.00,meteohub,2013-10-29 04:04:00,
2013-10-28 23:05:00,45.1,30.0,29.66,ENE,68,0.0,0.0,55,0.00,,,0.00,meteohub,2013-10-29 04:05:00,
2013-10-28 23:07:00,45.0,29.3,29.66,ENE,68,0.0,0.0,54,0.00,,,0.00,meteohub,2013-10-29 04:07:00,
2013-10-28 23:12:00,45.0,29.3,29.66,ENE,68,0.0,0.0,54,0.00,,,0.00,meteohub,2013-10-29 04:12:00,
2013-10-28 23:17:00,45.0,29.8,29.66,ENE,68,0.0,0.0,55,0.00,,,0.00,meteohub,2013-10-29 04:17:00,
2013-10-28 23:22:00,45.0,29.8,29.66,ENE,68,0.0,0.0,55,0.00,,,0.00,meteohub,2013-10-29 04:22:00,
2013-10-28 23:27:00,44.8,30.0,29.66,ENE,68,0.0,0.0,56,0.00,,,0.00,meteohub,2013-10-29 04:27:00,
2013-10-28 23:32:00,44.8,30.0,29.66,ENE,68,0.0,0.0,56,0.00,,,0.00,meteohub,2013-10-29 04:32:00,
2013-10-28 23:37:00,45.0,30.2,29.66,ENE,68,0.0,0.0,56,0.00,,,0.00,meteohub,2013-10-29 04:37:00,
2013-10-28 23:42:00,44.8,30.0,29.66,ENE,68,0.0,0.0,56,0.00,,,0.00,meteohub,2013-10-29 04:42:00,
2013-10-28 23:47:00,45.0,30.2,29.66,South,180,0.0,0.0,56,0.00,,,0.00,meteohub,2013-10-29 04:47:00,
2013-10-28 23:52:00,44.8,30.0,29.66,South,180,0.0,0.0,56,0.00,,,0.00,meteohub,2013-10-29 04:52:00,
2013-10-28 23:57:00,44.8,30.0,29.66,South,180,0.0,0.0,56,0.00,,,0.00,meteohub,2013-10-29 04:57:00,